Time;durP1;ratioP1;P1;durP2;ratioP2;P2;SDS_P1;SDS_P2;PMS_P1;PMS_P2;Temp;Humidity;BMP_temperature;BMP_pressure;BME280_temperature;BME280_humidity;BME280_pressure;Samples;Min_cycle;Max_cycle;Signal;HPM_P1;HPM_P2
2021/11/15 00:01:43;;;;;;;;;30.50;28.50;;;;;8.86;71.71;101575.19;5096687;27;64162;-61
2021/11/15 00:04:14;;;;;;;;;31.50;29.75;;;;;8.83;71.73;101567.53;5079062;27;46370;-62
2021/11/15 00:06:39;;;;;;;;;28.00;26.50;;;;;8.85;71.56;101576.13;5096266;27;45764;-62
2021/11/15 00:09:05;;;;;;;;;30.50;25.75;;;;;8.83;71.79;101576.22;5079440;27;45272;-62
2021/11/15 00:11:31;;;;;;;;;31.25;29.50;;;;;8.85;71.59;101576.13;5097046;27;45625;-62
2021/11/15 00:13:56;;;;;;;;;28.25;27.00;;;;;8.85;71.66;101576.13;5097265;27;46335;-61
2021/11/15 00:16:22;;;;;;;;;33.25;29.00;;;;;8.86;71.67;101576.03;5097244;27;45296;-61
2021/11/15 00:18:47;;;;;;;;;35.00;30.00;;;;;8.86;71.32;101577.81;5078658;27;56974;-62
2021/11/15 00:21:12;;;;;;;;;28.50;27.50;;;;;8.83;71.56;101575.41;5096758;27;61807;-62
2021/11/15 00:23:38;;;;;;;;;28.25;22.50;;;;;8.80;71.38;101573.78;5095997;27;68105;-62
2021/11/15 00:26:03;;;;;;;;;27.50;26.00;;;;;8.78;71.37;101567.81;5096328;27;62034;-60
2021/11/15 00:28:28;;;;;;;;;28.25;24.00;;;;;8.75;71.15;101566.25;5096456;27;63615;-60
2021/11/15 00:30:54;;;;;;;;;31.25;28.25;;;;;8.72;71.58;101574.31;5097172;27;45509;-60
2021/11/15 00:33:19;;;;;;;;;30.75;25.00;;;;;8.71;71.66;101577.84;5096682;27;50250;-59
2021/11/15 00:35:45;;;;;;;;;31.50;27.25;;;;;8.71;71.45;101577.03;5096166;27;67428;-61
2021/11/15 00:38:10;;;;;;;;;28.25;24.00;;;;;8.72;71.41;101579.53;5096677;27;55220;-59
2021/11/15 00:40:35;;;;;;;;;33.50;30.50;;;;;8.72;71.19;101574.31;5096456;27;61756;-60
2021/11/15 00:43:01;;;;;;;;;30.50;27.75;;;;;8.70;71.36;101583.22;5078571;27;47188;-62
2021/11/15 00:45:26;;;;;;;;;31.00;28.25;;;;;8.70;71.29;101583.22;5096880;27;45300;-61
2021/11/15 00:47:52;;;;;;;;;32.00;29.75;;;;;8.67;71.33;101576.38;5096922;27;45837;-59
2021/11/15 00:50:18;;;;;;;;;39.00;32.75;;;;;8.66;71.17;101574.69;5096228;27;61942;-61
2021/11/15 00:52:44;;;;;;;;;31.50;26.75;;;;;8.64;71.31;101571.31;5096612;27;45565;-60
2021/11/15 00:55:10;;;;;;;;;31.25;30.00;;;;;8.63;71.18;101576.69;5096685;27;45400;-60
2021/11/15 00:57:35;;;;;;;;;35.75;27.25;;;;;8.59;71.23;101573.38;5095764;27;45775;-59
2021/11/15 01:00:02;;;;;;;;;31.50;26.00;;;;;8.57;71.23;101575.25;5095979;27;45433;-60
2021/11/15 01:02:28;;;;;;;;;30.50;29.50;;;;;8.52;71.41;101578.19;5096452;27;45424;-62
2021/11/15 01:04:53;;;;;;;;;31.00;29.00;;;;;8.49;71.08;101575.75;5096717;27;45389;-62
2021/11/15 01:07:19;;;;;;;;;30.75;29.25;;;;;8.45;71.40;101575.09;5078602;27;45380;-62
2021/11/15 01:09:44;;;;;;;;;37.75;31.25;;;;;8.43;71.34;101579.59;5096051;27;61860;-60
2021/11/15 01:12:09;;;;;;;;;33.00;29.00;;;;;8.42;71.60;101571.81;5096005;27;59119;-59
2021/11/15 01:14:35;;;;;;;;;39.25;29.25;;;;;8.41;71.44;101572.75;5096451;27;45326;-60
2021/11/15 01:17:02;;;;;;;;;31.50;29.00;;;;;8.38;71.47;101565.09;5095727;27;58549;-59
2021/11/15 01:19:27;;;;;;;;;30.50;26.00;;;;;8.35;71.47;101566.13;5096642;27;45673;-60
2021/11/15 01:21:53;;;;;;;;;31.50;26.75;;;;;8.36;71.56;101567.81;5095677;27;67486;-60
2021/11/15 01:24:18;;;;;;;;;36.25;29.00;;;;;8.35;71.48;101566.13;5098379;27;45763;-62
2021/11/15 01:26:43;;;;;;;;;30.75;25.50;;;;;8.36;71.39;101569.56;5099329;27;62073;-61
2021/11/15 01:29:10;;;;;;;;;33.00;29.00;;;;;8.36;71.48;101570.44;5099061;27;67049;-61
2021/11/15 01:31:38;;;;;;;;;30.00;27.75;;;;;8.37;71.33;101568.63;5081884;27;45514;-62
2021/11/15 01:34:03;;;;;;;;;36.00;29.00;;;;;8.36;71.51;101573.06;5099768;27;45352;-62
2021/11/15 01:36:29;;;;;;;;;31.50;28.50;;;;;8.37;71.28;101566.03;5099698;27;45353;-61
2021/11/15 01:38:54;;;;;;;;;36.00;29.00;;;;;8.37;71.37;101574.72;5099484;27;48248;-62
2021/11/15 01:41:20;;;;;;;;;33.50;28.25;;;;;8.38;71.14;101572.94;5098958;27;67282;-61
2021/11/15 01:43:45;;;;;;;;;33.75;30.25;;;;;8.38;71.02;101579.03;5098895;27;65343;-61
2021/11/15 01:46:10;;;;;;;;;35.50;29.00;;;;;8.38;71.08;101572.94;5099191;27;57871;-61
2021/11/15 01:48:36;;;;;;;;;34.00;29.75;;;;;8.36;70.89;101572.19;5099432;27;51849;-61
2021/11/15 01:51:01;;;;;;;;;31.50;26.50;;;;;8.33;71.06;101565.38;5098818;27;67517;-61
2021/11/15 01:53:27;;;;;;;;;34.00;29.00;;;;;8.34;70.96;101567.06;5099465;27;45362;-62
2021/11/15 01:55:52;;;;;;;;;34.50;28.75;;;;;8.34;70.95;101569.69;5099027;27;58610;-62
2021/11/15 01:58:17;;;;;;;;;33.50;30.00;;;;;8.30;70.79;101568.19;5099662;27;45593;-62
2021/11/15 02:00:44;;;;;;;;;44.00;31.00;;;;;8.29;70.80;101561.28;5098506;27;68179;-63
2021/11/15 02:03:09;;;;;;;;;30.25;28.25;;;;;8.25;71.00;101570.25;5099440;27;45252;-62
2021/11/15 02:05:35;;;;;;;;;34.50;29.25;;;;;8.23;70.92;101567.72;5099490;27;45166;-61
2021/11/15 02:08:01;;;;;;;;;37.00;28.25;;;;;8.22;70.91;101573.88;5099409;27;45376;-60
2021/11/15 02:10:26;;;;;;;;;33.75;29.25;;;;;8.21;70.64;101581.84;5099331;27;45424;-62
2021/11/15 02:12:51;;;;;;;;;35.75;29.00;;;;;8.16;70.90;101572.50;5098520;27;66290;-62
2021/11/15 02:15:17;;;;;;;;;35.00;32.00;;;;;8.14;70.83;101570.94;5098425;27;68267;-62
2021/11/15 02:17:43;;;;;;;;;36.00;30.25;;;;;8.10;71.08;101570.25;5099235;27;45366;-62
2021/11/15 02:20:19;;;;;;;;;32.75;29.50;;;;;8.05;70.92;101569.69;5080721;27;45410;-62
2021/11/15 02:22:45;;;;;;;;;35.00;30.75;;;;;8.04;70.94;101567.19;5099241;27;45893;-62
2021/11/15 02:25:14;;;;;;;;;36.00;32.75;;;;;7.98;70.91;101563.16;5097958;27;45342;-61
2021/11/15 02:27:40;;;;;;;;;42.25;31.75;;;;;7.96;71.12;101571.09;5099350;27;45598;-62
2021/11/15 02:30:10;;;;;;;;;39.50;33.00;;;;;7.91;70.98;101569.72;5098959;27;45664;-62
2021/11/15 02:32:36;;;;;;;;;31.00;29.25;;;;;7.85;71.25;101570.91;5097741;27;45812;-61
2021/11/15 02:35:01;;;;;;;;;38.25;30.25;;;;;7.79;71.21;101569.53;5097945;27;62833;-61
2021/11/15 02:37:27;;;;;;;;;39.50;33.75;;;;;7.76;71.40;101561.00;5098995;27;45302;-62
2021/11/15 02:39:52;;;;;;;;;35.00;32.25;;;;;7.71;71.44;101562.13;5098173;27;70364;-62
2021/11/15 02:42:17;;;;;;;;;37.25;32.75;;;;;7.67;71.59;101559.78;5080679;27;45263;-62
2021/11/15 02:44:43;;;;;;;;;40.00;33.25;;;;;7.64;71.47;101555.59;5062995;27;59738;-61
2021/11/15 02:47:08;;;;;;;;;38.50;33.75;;;;;7.61;71.64;101561.00;5098818;27;45510;-61
2021/11/15 02:49:34;;;;;;;;;41.25;33.75;;;;;7.60;71.66;101558.47;5098634;27;45425;-61
2021/11/15 02:51:59;;;;;;;;;44.50;34.00;;;;;7.57;71.68;101555.09;5080300;27;45346;-62
2021/11/15 02:54:24;;;;;;;;;42.00;33.25;;;;;7.56;71.72;101558.66;5098203;27;61471;-62
2021/11/15 02:56:51;;;;;;;;;43.00;34.75;;;;;7.54;71.71;101565.75;5098194;27;53085;-62
2021/11/15 02:59:16;;;;;;;;;33.25;29.50;;;;;7.52;72.00;101564.97;5098504;27;47168;-61
2021/11/15 03:01:45;;;;;;;;;41.75;32.25;;;;;7.49;72.08;101562.56;5098113;27;56439;-62
2021/11/15 03:04:11;;;;;;;;;39.00;33.75;;;;;7.46;72.04;101570.56;5098345;27;45351;-62
2021/11/15 03:06:36;;;;;;;;;38.50;33.00;;;;;7.43;72.02;101569.00;5098505;27;45458;-62
2021/11/15 03:09:02;;;;;;;;;42.00;33.50;;;;;7.41;72.00;101576.09;5097726;27;66353;-62
2021/11/15 03:11:27;;;;;;;;;41.75;34.00;;;;;7.39;72.01;101566.66;5097413;27;66187;-61
2021/11/15 03:13:53;;;;;;;;;41.75;29.00;;;;;7.37;72.07;101563.28;5079317;27;62546;-62
2021/11/15 03:16:18;;;;;;;;;43.75;32.25;;;;;7.34;72.19;101568.69;5098278;27;45172;-62
2021/11/15 03:18:44;;;;;;;;;41.25;33.00;;;;;7.31;72.24;101574.09;5098082;27;45612;-62
2021/11/15 03:21:12;;;;;;;;;36.00;32.50;;;;;7.28;72.31;101570.75;5098162;27;45340;-61
2021/11/15 03:23:40;;;;;;;;;50.00;36.50;;;;;7.26;72.40;101569.97;5098042;27;45381;-61
2021/11/15 03:26:06;;;;;;;;;39.75;31.75;;;;;7.22;72.83;101573.69;5097418;27;45470;-61
2021/11/15 03:28:33;;;;;;;;;40.25;32.00;;;;;7.22;72.73;101570.22;5097875;27;45580;-61
2021/11/15 03:31:07;;;;;;;;;38.75;33.25;;;;;7.15;72.86;101567.16;5079846;27;45395;-62
2021/11/15 03:33:34;;;;;;;;;48.50;38.00;;;;;7.13;73.07;101569.00;5079625;27;45289;-61
2021/11/15 03:35:59;;;;;;;;;43.25;35.75;;;;;7.11;73.05;101571.72;5079475;27;45425;-61
2021/11/15 03:38:25;;;;;;;;;39.00;33.75;;;;;7.12;73.50;101572.53;5097729;27;46580;-61
2021/11/15 03:40:50;;;;;;;;;43.00;35.00;;;;;7.12;73.52;101570.78;5097226;27;63767;-61
2021/11/15 03:43:15;;;;;;;;;46.25;35.00;;;;;7.13;73.48;101576.84;5097144;27;64219;-60
2021/11/15 03:45:41;;;;;;;;;40.00;31.75;;;;;7.13;73.46;101577.69;5096787;27;47843;-60
2021/11/15 03:48:08;;;;;;;;;42.25;33.75;;;;;7.13;73.56;101580.31;5097521;27;45413;-61
2021/11/15 03:50:33;;;;;;;;;49.75;36.50;;;;;7.13;73.54;101582.06;5079469;27;45338;-61
2021/11/15 03:52:59;;;;;;;;;45.50;34.50;;;;;7.12;73.72;101583.84;5097853;27;45377;-61
2021/11/15 03:55:25;;;;;;;;;46.50;36.25;;;;;7.13;73.56;101579.47;5079612;27;45379;-61
2021/11/15 03:57:51;;;;;;;;;43.00;35.00;;;;;7.12;73.60;101573.41;5097335;27;45454;-61
2021/11/15 04:00:18;;;;;;;;;38.25;32.00;;;;;7.11;73.71;101573.47;5096380;27;45375;-60
2021/11/15 04:02:45;;;;;;;;;47.25;36.25;;;;;7.13;73.43;101579.47;5097759;27;45173;-60
2021/11/15 04:05:11;;;;;;;;;41.75;34.25;;;;;7.14;73.88;101573.31;5096585;27;45589;-60
2021/11/15 04:07:39;;;;;;;;;45.50;36.00;;;;;7.17;73.67;101578.34;5097351;27;45702;-62
2021/11/15 04:10:07;;;;;;;;;39.25;34.00;;;;;7.17;73.66;101567.91;5097335;27;45464;-61
2021/11/15 04:12:33;;;;;;;;;39.25;33.25;;;;;7.20;73.75;101564.25;5097564;27;45366;-61
2021/11/15 04:14:58;;;;;;;;;40.50;33.50;;;;;7.21;73.71;101565.94;5096661;27;64394;-61
2021/11/15 04:17:24;;;;;;;;;38.50;34.25;;;;;7.19;73.74;101566.03;5096692;27;59104;-61
2021/11/15 04:19:50;;;;;;;;;40.75;33.75;;;;;7.18;73.69;101569.59;5079082;27;45327;-61
2021/11/15 04:22:16;;;;;;;;;41.00;35.00;;;;;7.18;73.69;101569.59;5097241;27;45210;-61
2021/11/15 04:24:41;;;;;;;;;45.25;36.00;;;;;7.20;73.64;101566.88;5097195;27;45513;-61
2021/11/15 04:27:08;;;;;;;;;43.75;36.00;;;;;7.13;73.78;101567.25;5096527;27;67163;-62
2021/11/15 04:29:33;;;;;;;;;41.00;30.00;;;;;7.14;73.81;101575.91;5078605;27;45937;-61
2021/11/15 04:31:58;;;;;;;;;40.50;35.75;;;;;7.15;73.82;101577.59;5097425;27;45319;-61
2021/11/15 04:34:24;;;;;;;;;42.50;32.25;;;;;7.13;73.74;101579.47;5096452;27;59645;-61
2021/11/15 04:36:49;;;;;;;;;46.25;33.25;;;;;7.12;73.86;101578.63;5096060;27;67858;-61
2021/11/15 04:39:14;;;;;;;;;36.50;28.50;;;;;7.09;73.88;101578.81;5096344;27;64136;-62
2021/11/15 04:41:40;;;;;;;;;44.75;34.75;;;;;7.06;73.99;101585.97;5097030;27;45446;-61
2021/11/15 04:44:05;;;;;;;;;38.00;30.50;;;;;7.06;74.20;101578.97;5097061;27;45472;-61
2021/11/15 04:46:31;;;;;;;;;42.75;29.25;;;;;7.06;73.97;101580.72;5096792;27;46174;-61
2021/11/15 04:48:56;;;;;;;;;38.50;29.75;;;;;7.01;74.09;101574.91;5096166;27;61281;-61
2021/11/15 04:51:22;;;;;;;;;37.00;32.25;;;;;6.98;74.27;101576.78;5096873;27;45411;-61
2021/11/15 04:53:47;;;;;;;;;41.00;33.00;;;;;6.97;74.36;101574.25;5097001;27;45520;-61
2021/11/15 04:56:12;;;;;;;;;35.50;31.75;;;;;6.94;74.41;101567.44;5095963;27;63441;-61
2021/11/15 04:58:38;;;;;;;;;43.00;31.75;;;;;6.94;74.57;101572.66;5099009;27;62249;-61
2021/11/15 05:01:04;;;;;;;;;45.75;34.50;;;;;6.94;74.57;101562.19;5099689;27;62707;-60
2021/11/15 05:03:30;;;;;;;;;44.00;34.00;;;;;6.94;74.48;101564.00;5100558;27;45538;-61
2021/11/15 05:05:55;;;;;;;;;35.25;30.50;;;;;6.96;74.76;101556.91;5100271;27;46576;-61
2021/11/15 05:08:20;;;;;;;;;46.50;35.75;;;;;6.96;74.69;101565.56;5099574;27;63674;-61
2021/11/15 05:10:46;;;;;;;;;35.00;29.25;;;;;6.97;74.60;101564.63;5098335;27;68098;-61
2021/11/15 05:13:11;;;;;;;;;44.25;34.00;;;;;6.98;74.52;101560.28;5100385;27;45207;-61
2021/11/15 05:15:37;;;;;;;;;44.00;36.00;;;;;6.97;74.51;101554.19;5081730;27;46312;-61
2021/11/15 05:18:02;;;;;;;;;41.25;35.00;;;;;6.98;74.67;101566.31;5100066;27;45240;-62
2021/11/15 05:20:28;;;;;;;;;37.75;33.50;;;;;6.97;74.76;101559.41;5100434;27;45231;-60
2021/11/15 05:22:53;;;;;;;;;46.00;33.25;;;;;6.98;74.57;101571.56;5099579;27;59153;-60
2021/11/15 05:25:19;;;;;;;;;42.25;33.25;;;;;6.97;74.70;101577.72;5099215;27;64528;-61
2021/11/15 05:27:44;;;;;;;;;46.00;31.00;;;;;7.01;74.79;101573.16;5081307;27;45360;-61
2021/11/15 05:30:12;;;;;;;;;33.00;26.75;;;;;7.03;74.63;101573.06;5081805;27;45432;-61
2021/11/15 05:32:37;;;;;;;;;34.75;27.75;;;;;7.03;74.61;101575.69;5081823;27;45490;-62
2021/11/15 05:35:03;;;;;;;;;44.50;33.75;;;;;7.04;74.59;101577.38;5081542;27;47830;-61
2021/11/15 05:37:28;;;;;;;;;44.00;33.75;;;;;7.05;74.67;101571.22;5081371;27;45201;-61
2021/11/15 05:39:54;;;;;;;;;38.50;27.75;;;;;7.08;74.31;101573.66;5098766;27;45234;-61
2021/11/15 05:42:19;;;;;;;;;37.00;29.75;;;;;7.06;74.48;101573.75;5098676;27;45220;-61
2021/11/15 05:44:45;;;;;;;;;38.25;31.75;;;;;7.03;74.48;101575.69;5098621;27;70654;-61
2021/11/15 05:47:10;;;;;;;;;44.00;30.50;;;;;7.00;74.59;101571.47;5099183;27;51628;-61
2021/11/15 05:49:35;;;;;;;;;38.00;33.00;;;;;7.00;74.57;101587.16;5098928;27;66736;-61
2021/11/15 05:52:01;;;;;;;;;31.50;29.50;;;;;7.00;74.58;101578.47;5099411;27;47301;-61
2021/11/15 05:54:26;;;;;;;;;37.00;30.50;;;;;7.02;74.63;101574.84;5098733;27;66729;-61
2021/11/15 05:56:51;;;;;;;;;34.25;30.00;;;;;7.00;74.47;101571.47;5098880;27;56965;-61
2021/11/15 05:59:17;;;;;;;;;40.50;31.50;;;;;7.00;74.81;101581.06;5099073;27;55105;-61
2021/11/15 06:01:43;;;;;;;;;39.50;32.00;;;;;7.00;74.75;101581.06;5098785;27;70408;-61
2021/11/15 06:04:11;;;;;;;;;41.75;31.75;;;;;7.02;74.75;101585.31;5099357;27;45642;-61
2021/11/15 06:06:38;;;;;;;;;37.50;30.00;;;;;7.01;74.77;101582.75;5099303;27;45456;-61
2021/11/15 06:09:03;;;;;;;;;46.50;31.25;;;;;7.00;74.92;101591.53;5097777;27;45324;-61
2021/11/15 06:11:28;;;;;;;;;38.75;32.50;;;;;6.99;75.05;101585.47;5099458;27;45233;-61
2021/11/15 06:13:54;;;;;;;;;34.25;29.75;;;;;7.02;74.91;101587.91;5098321;27;73992;-61
2021/11/15 06:16:19;;;;;;;;;44.00;34.00;;;;;7.03;74.81;101586.13;5098620;27;61278;-61
2021/11/15 06:18:44;;;;;;;;;34.50;29.25;;;;;7.04;74.83;101577.38;5098482;27;64197;-61
2021/11/15 06:21:10;;;;;;;;;39.50;32.50;;;;;7.07;74.91;101587.66;5098415;27;58634;-61
2021/11/15 06:23:35;;;;;;;;;43.75;37.75;;;;;7.08;74.62;101592.81;5098934;27;45423;-61
2021/11/15 06:26:01;;;;;;;;;43.00;32.75;;;;;7.09;74.37;101586.66;5098978;27;45474;-61
2021/11/15 06:28:26;;;;;;;;;42.00;33.25;;;;;7.10;74.64;101590.09;5099173;27;45321;-61
2021/11/15 06:30:52;;;;;;;;;37.50;31.50;;;;;7.07;74.72;101596.34;5098307;27;61534;-61
2021/11/15 06:33:18;;;;;;;;;31.00;26.25;;;;;7.06;74.72;101597.28;5098775;27;47368;-61
2021/11/15 06:35:43;;;;;;;;;36.50;31.75;;;;;7.07;74.75;101598.09;5098323;27;47004;-61
2021/11/15 06:38:09;;;;;;;;;40.50;29.75;;;;;7.08;74.58;101599.78;5098751;27;45330;-61
2021/11/15 06:40:34;;;;;;;;;38.50;30.75;;;;;7.06;74.80;101596.41;5098838;27;45532;-61
2021/11/15 06:42:59;;;;;;;;;36.00;29.50;;;;;7.05;74.70;101608.66;5080236;27;45282;-61
2021/11/15 06:45:26;;;;;;;;;40.25;34.00;;;;;7.03;74.68;101607.03;5097805;27;62805;-61
2021/11/15 06:47:52;;;;;;;;;33.75;28.75;;;;;7.04;74.52;101603.50;5097662;27;45392;-61
2021/11/15 06:50:18;;;;;;;;;28.25;24.50;;;;;7.04;74.69;101606.97;5097536;27;69257;-60
2021/11/15 06:52:44;;;;;;;;;30.75;24.25;;;;;7.03;74.77;101612.25;5098278;27;45475;-61
2021/11/15 06:55:10;;;;;;;;;32.00;22.25;;;;;7.05;74.75;101613.03;5080216;27;45412;-61
2021/11/15 06:57:37;;;;;;;;;33.00;23.00;;;;;7.09;74.66;101611.91;5098322;27;45359;-61
2021/11/15 07:00:04;;;;;;;;;30.25;26.50;;;;;7.07;74.67;101609.41;5098876;27;45590;-60
2021/11/15 07:02:29;;;;;;;;;35.00;30.75;;;;;7.09;74.55;101622.38;5098078;27;46525;-61
2021/11/15 07:04:55;;;;;;;;;34.00;26.50;;;;;7.08;74.70;101623.31;5079082;27;71033;-61
2021/11/15 07:07:20;;;;;;;;;40.00;31.75;;;;;7.08;74.66;101618.06;5098593;27;45430;-62
2021/11/15 07:09:47;;;;;;;;;35.00;28.25;;;;;7.09;74.62;101623.22;5097590;27;65512;-61
2021/11/15 07:12:13;;;;;;;;;30.75;24.00;;;;;7.09;74.61;101625.00;5098064;27;46326;-61
2021/11/15 07:14:39;;;;;;;;;38.25;29.00;;;;;7.11;74.82;101631.81;5098169;27;45351;-61
2021/11/15 07:17:04;;;;;;;;;40.75;33.50;;;;;7.13;74.72;101634.34;5098313;27;45477;-61
2021/11/15 07:19:29;;;;;;;;;38.00;26.25;;;;;7.13;74.53;101636.97;5098031;27;45319;-61
2021/11/15 07:21:55;;;;;;;;;34.25;26.50;;;;;7.11;74.74;101642.28;5079466;27;46375;-61
2021/11/15 07:24:20;;;;;;;;;32.00;24.50;;;;;7.11;74.78;101639.66;5096831;27;68139;-61
2021/11/15 07:26:46;;;;;;;;;33.00;28.25;;;;;7.13;74.65;101643.03;5097276;27;66636;-61
2021/11/15 07:29:11;;;;;;;;;36.25;32.25;;;;;7.13;74.81;101648.28;5097065;27;65561;-61
2021/11/15 07:31:39;;;;;;;;;36.75;27.50;;;;;7.13;74.80;101655.25;5096732;27;69038;-60
2021/11/15 07:34:04;;;;;;;;;38.25;31.50;;;;;7.11;74.71;101647.50;5097583;27;45887;-61
2021/11/15 07:36:32;;;;;;;;;37.75;29.75;;;;;7.11;74.84;101654.50;5096966;27;60723;-61
2021/11/15 07:38:57;;;;;;;;;43.25;32.00;;;;;7.13;75.11;101652.63;5096989;27;45325;-61
2021/11/15 07:41:22;;;;;;;;;36.75;29.50;;;;;7.15;74.94;101652.56;5096310;27;45537;-61
2021/11/15 07:43:48;;;;;;;;;33.25;28.25;;;;;7.16;75.01;101647.25;5097045;27;67085;-61
2021/11/15 07:46:13;;;;;;;;;35.75;28.75;;;;;7.18;75.05;101653.22;5097942;27;45222;-61
2021/11/15 07:48:39;;;;;;;;;32.25;26.00;;;;;7.21;75.00;101660.03;5078422;27;65104;-61
2021/11/15 07:51:04;;;;;;;;;37.50;26.00;;;;;7.22;75.06;101656.50;5096617;27;66137;-60
2021/11/15 07:53:31;;;;;;;;;35.75;26.75;;;;;7.22;74.81;101654.75;5096353;27;45343;-61
2021/11/15 07:55:56;;;;;;;;;26.75;22.00;;;;;7.22;75.02;101662.59;5097794;27;45352;-62
2021/11/15 07:58:22;;;;;;;;;41.25;31.50;;;;;7.25;75.15;101667.63;5097523;27;45533;-61
2021/11/15 08:00:48;;;;;;;;;40.00;31.50;;;;;7.27;74.85;101671.00;5096971;27;59449;-61
2021/11/15 08:03:14;;;;;;;;;32.50;30.50;;;;;7.30;74.92;101664.75;5097336;27;45834;-61
2021/11/15 08:05:39;;;;;;;;;40.25;26.75;;;;;7.32;75.06;101664.69;5079337;27;45418;-61
2021/11/15 08:08:05;;;;;;;;;29.75;26.75;;;;;7.33;74.98;101669.81;5097050;27;45308;-62
2021/11/15 08:10:30;;;;;;;;;35.00;26.75;;;;;7.36;74.86;101661.78;5096493;27;64385;-61
2021/11/15 08:12:57;;;;;;;;;36.50;29.25;;;;;7.37;74.92;101658.25;5077725;27;67295;-61
2021/11/15 08:15:23;;;;;;;;;38.00;30.50;;;;;7.39;74.88;101671.25;5095931;27;45380;-61
2021/11/15 08:17:51;;;;;;;;;33.50;25.00;;;;;7.41;74.88;101665.00;5096956;27;45404;-62
2021/11/15 08:20:29;;;;;;;;;34.75;27.25;;;;;7.44;74.76;101674.41;5096001;27;46294;-61
2021/11/15 08:22:57;;;;;;;;;41.75;30.75;;;;;7.47;74.90;101678.66;5097194;27;45920;-61
2021/11/15 08:25:26;;;;;;;;;36.00;27.75;;;;;7.50;74.79;101676.69;5078782;27;45441;-60
2021/11/15 08:27:54;;;;;;;;;31.00;24.75;;;;;7.54;74.64;101670.34;5097374;27;45359;-60
2021/11/15 08:30:20;;;;;;;;;30.75;24.75;;;;;7.55;74.74;101661.56;5097028;27;45304;-61
2021/11/15 08:32:45;;;;;;;;;30.75;27.25;;;;;7.56;74.71;101657.19;5077516;27;62709;-60
2021/11/15 08:35:11;;;;;;;;;41.00;31.00;;;;;7.57;74.55;101664.94;5097037;27;45294;-61
2021/11/15 08:37:40;;;;;;;;;39.50;32.75;;;;;7.59;74.65;101664.88;5096653;27;45374;-62
2021/11/15 08:40:06;;;;;;;;;37.75;31.00;;;;;7.61;74.72;101670.00;5078462;27;46301;-61
2021/11/15 08:42:32;;;;;;;;;30.25;25.75;;;;;7.62;74.73;101663.84;5096838;27;45818;-62
2021/11/15 08:45:01;;;;;;;;;35.25;28.75;;;;;7.66;74.75;101670.59;5096137;27;65712;-61
2021/11/15 08:47:26;;;;;;;;;33.50;27.00;;;;;7.71;74.66;101672.00;5095625;27;45369;-61
2021/11/15 08:49:52;;;;;;;;;31.25;27.00;;;;;7.74;74.75;101668.38;5095526;27;45428;-61
2021/11/15 08:52:18;;;;;;;;;36.00;29.50;;;;;7.78;74.86;101674.25;5097002;27;45858;-61
2021/11/15 08:54:47;;;;;;;;;35.00;30.75;;;;;7.80;74.63;101677.63;5096541;27;50032;-61
2021/11/15 08:57:13;;;;;;;;;37.50;30.50;;;;;7.83;74.71;101674.81;5078423;27;45478;-61
2021/11/15 08:59:39;;;;;;;;;36.50;28.75;;;;;7.84;74.51;101673.91;5096085;27;64365;-61
2021/11/15 09:02:04;;;;;;;;;42.50;31.25;;;;;7.84;74.38;101672.13;5096427;27;45354;-61
2021/11/15 09:04:29;;;;;;;;;42.00;33.00;;;;;7.87;74.40;101673.72;5096738;27;45309;-61
2021/11/15 09:06:55;;;;;;;;;33.00;27.50;;;;;7.90;74.42;101680.56;5096215;27;52575;-61
2021/11/15 09:09:22;;;;;;;;;45.00;31.75;;;;;7.91;74.34;101674.41;5096434;27;45442;-61
2021/11/15 09:11:52;;;;;;;;;38.75;32.00;;;;;7.91;74.41;101670.00;5096475;27;45340;-61
2021/11/15 09:14:18;;;;;;;;;32.75;27.75;;;;;7.93;74.06;101669.91;5078458;27;45405;-62
2021/11/15 09:16:44;;;;;;;;;35.75;28.00;;;;;7.92;74.34;101668.22;5096210;27;45393;-62
2021/11/15 09:19:12;;;;;;;;;41.00;27.75;;;;;7.95;74.33;101665.44;5096207;27;46197;-61
2021/11/15 09:21:38;;;;;;;;;33.00;27.75;;;;;7.96;74.25;101664.47;5095100;27;45258;-61
2021/11/15 09:24:04;;;;;;;;;34.00;27.50;;;;;7.95;74.40;101666.25;5096047;27;45320;-61
2021/11/15 09:26:29;;;;;;;;;39.00;29.00;;;;;7.98;74.26;101667.84;5094913;27;45324;-61
2021/11/15 09:28:58;;;;;;;;;33.00;28.75;;;;;8.00;74.53;101669.44;5096106;27;45255;-61
2021/11/15 09:31:23;;;;;;;;;31.25;27.50;;;;;8.03;74.47;101665.78;5096315;27;45863;-62
2021/11/15 09:33:50;;;;;;;;;33.00;25.75;;;;;8.08;74.33;101671.59;5094940;27;45361;-61
2021/11/15 09:36:16;;;;;;;;;38.00;29.00;;;;;8.14;74.53;101666.00;5096060;27;45583;-61
2021/11/15 09:38:43;;;;;;;;;40.50;31.25;;;;;8.24;74.18;101660.22;5095800;27;47209;-61
2021/11/15 09:41:09;;;;;;;;;34.50;30.00;;;;;8.27;73.78;101663.47;5096061;27;45397;-61
2021/11/15 09:43:36;;;;;;;;;31.25;27.75;;;;;8.31;73.91;101664.16;5095326;27;64958;-62
2021/11/15 09:46:13;;;;;;;;;38.75;30.50;;;;;8.34;73.71;101674.44;5081277;27;45365;-61
2021/11/15 09:48:40;;;;;;;;;36.50;27.75;;;;;8.37;73.46;101673.41;5099473;27;45397;-61
2021/11/15 09:51:05;;;;;;;;;34.00;28.75;;;;;8.39;73.47;101675.00;5099612;27;45879;-61
2021/11/15 09:53:31;;;;;;;;;39.25;27.75;;;;;8.41;73.34;101680.13;5098916;27;58743;-61
2021/11/15 09:55:57;;;;;;;;;45.25;31.00;;;;;8.42;73.71;101677.44;5097918;27;58100;-62
2021/11/15 09:58:22;;;;;;;;;32.00;30.25;;;;;8.44;73.53;101675.56;5099212;27;46198;-61
2021/11/15 10:00:48;;;;;;;;;30.50;25.75;;;;;8.46;73.55;101686.78;5099418;27;45413;-61
2021/11/15 10:03:13;;;;;;;;;37.75;30.00;;;;;8.52;73.49;101685.59;5099630;27;45371;-61
2021/11/15 10:05:38;;;;;;;;;32.00;29.25;;;;;8.54;72.95;101683.72;5099010;27;54362;-61
2021/11/15 10:08:08;;;;;;;;;40.50;31.75;;;;;8.56;73.01;101678.38;5098054;27;68428;-62
2021/11/15 10:10:39;;;;;;;;;39.50;32.00;;;;;8.59;72.96;101684.28;5099341;27;45352;-61
2021/11/15 10:13:32;;;;;;;;;44.75;31.50;;;;;8.62;72.96;101688.47;5099282;27;45343;-61
2021/11/15 10:16:12;;;;;;;;;38.75;29.50;;;;;8.62;73.14;101678.00;5096467;27;45639;-61
2021/11/15 10:18:58;;;;;;;;;44.25;35.50;;;;;8.65;73.28;101682.22;5098970;27;46223;-61
2021/11/15 10:21:26;;;;;;;;;33.75;29.50;;;;;8.68;73.36;101680.25;5099229;27;45305;-61
2021/11/15 10:24:07;;;;;;;;;40.50;30.00;;;;;8.73;72.93;101674.72;5099149;27;45436;-61
2021/11/15 10:26:50;;;;;;;;;39.00;32.00;;;;;8.76;72.68;101682.38;5099131;27;45385;-61
2021/11/15 10:29:20;;;;;;;;;34.75;29.50;;;;;8.76;72.88;101680.59;5098858;27;45504;-61
2021/11/15 10:31:49;;;;;;;;;41.00;33.00;;;;;8.79;72.86;101673.50;5098852;27;45974;-61
2021/11/15 10:34:23;;;;;;;;;43.00;32.75;;;;;8.82;72.62;101666.25;5098809;27;45365;-61
2021/11/15 10:36:59;;;;;;;;;36.25;30.25;;;;;8.84;72.23;101672.25;5098804;27;45265;-61
2021/11/15 10:39:31;;;;;;;;;42.00;30.75;;;;;8.85;72.20;101679.19;5098658;27;45522;-61
2021/11/15 10:42:08;;;;;;;;;56.75;43.25;;;;;8.84;72.33;101674.03;5098718;27;45322;-62
2021/11/15 10:44:34;;;;;;;;;27.50;17.25;;;;;8.83;72.17;101664.50;5080816;27;45471;-61
2021/11/15 10:47:00;;;;;;;;;48.50;36.25;;;;;8.82;72.06;101670.69;5098607;27;45586;-61
2021/11/15 10:49:25;;;;;;;;;40.75;31.25;;;;;8.81;72.12;101666.38;5098363;27;45954;-60
2021/11/15 10:51:53;;;;;;;;;40.00;35.50;;;;;8.76;72.30;101664.88;5097381;27;45316;-61
2021/11/15 10:54:55;;;;;;;;;38.75;32.75;;;;;8.75;72.60;101678.06;5080336;27;45412;-61
2021/11/15 10:57:25;;;;;;;;;46.50;36.00;;;;;8.78;72.69;101669.19;5098665;27;45245;-61
2021/11/15 11:00:10;;;;;;;;;47.25;36.00;;;;;8.80;72.56;101668.13;5098337;27;45554;-61
2021/11/15 11:02:40;;;;;;;;;40.25;34.00;;;;;8.81;72.06;101666.38;5098322;27;45426;-61
2021/11/15 11:05:09;;;;;;;;;44.75;34.50;;;;;8.79;72.36;101665.63;5079953;27;45383;-61
2021/11/15 11:07:38;;;;;;;;;40.50;31.75;;;;;8.76;72.38;101664.03;5096580;27;45534;-61
2021/11/15 11:10:06;;;;;;;;;42.75;36.00;;;;;8.77;72.72;101660.47;5098227;27;45660;-62
2021/11/15 11:12:35;;;;;;;;;42.75;35.25;;;;;8.80;72.43;101648.97;5098187;27;45418;-61
2021/11/15 11:15:26;;;;;;;;;41.75;33.00;;;;;8.80;72.27;101646.34;5098417;27;45476;-60